North Wilmurt, New York
Current Conditions -  °F | °C
As of 1:01 PM on Thursday 18 Dec 2014 (Local Time) from KRME Reporting Station
Overcast Overcast  
Wind Chill: 22°   Ceiling: 1500
Heat Index: 32°   Visibility: 10mi
Dew Point: 29°   Wind: 14mph
Humidity: 88%   Direction: 300°WNW
Pressure: 29.97"   Gusts: NA
Location:  43.3537°N, 75.1636°W
Report Text: KRME 181801Z 30012KT 10SM FEW008 BKN015 OVC022 00/M02 A2997 RMK AO2 SNE1754 P0000 T00001017
Loading
Personal Weather Stations






























Interactive Weather Map New forecast layout! Learn more

10-Day Weather Forecast

Advertisements
Track Severe Weather on mobile